Otis Orchards, Washington
Current Conditions -  °F | °C
As of 11:53 AM on Sunday 23 Nov 2014 (Local Time) from KSFF Reporting Station
Overcast Overcast  
Wind Chill: 33°   Ceiling: 6000
Heat Index: 41°   Visibility: 10mi
Dew Point: 35°   Wind: 15mph
Humidity: 79%   Direction: 230°SW
Pressure: 30.04"   Gusts: 20mph
Location:  47.7°N, 117.11°W
Report Text: KSFF 231953Z 23013G17KT 10SM SCT019 SCT049 OVC060 05/02 A3004 RMK AO2 SLP185 T00500017
Loading
Personal Weather Stations






























Interactive Weather Map New forecast layout! Learn more

10-Day Weather Forecast

Advertisements
Track Severe Weather on mobile